首页
METAR-TAF:

METAR-TAF

机场 :

努瓦克肖特国际机场

努瓦克肖特, 毛里塔尼亚

纬度: 18-18-36N, 经度: 015-58-11W, 海拔: 3米

当前天气观测

该预报发布于20分钟前的16:30 UTC
风速9节,风向东北
温度 31°C
湿度 13%
气压 1012 hPa
能見度: 8000

METAR: GQNO 201630Z 04009KT 8000 NSC 31/M01 Q1012 NOSIG

时间: 16:50 (16:50 UTC)

预报

该预报发布于5小时和50分钟前的11:00 UTC
预报有效从20日的 12点(UTC)到 21日的 18点(UTC)
风速10节,风向东北
能見度: 8000
短暂存在
从 20日的 20点(UTC)到 20日的 24点(UTC)
风速8节,风向

TAF: GQNO 201100Z 2012/2118 05010KT 8000 NSC TEMPO 2020/2024 35008KT

超过4000个机场的气象观测和天气预报(METAR&TAF报告)。

可查询的气象台以黄色和红色小点在地图上表示。

将鼠标移到小点上方,可查看气象台名称。

然后点击查看天气观测和预报。

如需切换地图:点击带黑十字的绿色按钮放大地图;点击带横线的绿色按钮缩小地图;或者点击绿色箭头查看邻近地区的地图。


METAR-TAF: